createdAt,value
2018-07-02T00:00:49.082Z,40.70
2018-07-02T00:03:17.148Z,39.90
2018-07-02T00:05:56.799Z,40.00
2018-07-02T00:08:24.866Z,40.00
2018-07-02T00:10:52.928Z,39.90
2018-07-02T00:13:20.970Z,40.00
2018-07-02T00:15:49.030Z,40.20
2018-07-02T00:18:17.114Z,40.10
2018-07-02T00:20:45.171Z,40.20
2018-07-02T00:25:41.143Z,40.50
2018-07-02T00:28:09.172Z,40.80
2018-07-02T00:30:37.270Z,40.70
2018-07-02T00:33:05.576Z,40.90
2018-07-02T00:35:33.666Z,41.00
2018-07-02T00:38:01.734Z,40.90
2018-07-02T00:40:29.791Z,41.10
2018-07-02T00:42:57.884Z,41.10
2018-07-02T00:45:25.935Z,41.10
2018-07-02T00:47:54.007Z,41.20
2018-07-02T00:50:22.070Z,41.30
2018-07-02T00:52:50.134Z,41.40
2018-07-02T00:55:18.218Z,41.50
2018-07-02T00:57:46.312Z,41.70
2018-07-02T01:00:15.918Z,41.80
2018-07-02T01:02:44.166Z,41.90
2018-07-02T01:05:19.058Z,42.00
2018-07-02T01:07:47.118Z,42.40
2018-07-02T01:10:15.178Z,42.50
2018-07-02T01:12:43.286Z,42.60
2018-07-02T01:15:11.346Z,42.60
2018-07-02T01:17:39.407Z,42.70
2018-07-02T01:20:07.470Z,42.70
2018-07-02T01:22:35.527Z,42.80
2018-07-02T01:25:03.589Z,42.80
2018-07-02T01:27:33.820Z,43.00
2018-07-02T01:30:02.814Z,43.10
2018-07-02T01:32:30.911Z,43.20
2018-07-02T01:34:59.098Z,43.30
2018-07-02T01:37:27.158Z,43.50
2018-07-02T01:39:55.229Z,43.60
2018-07-02T01:44:51.144Z,43.80
2018-07-02T01:47:19.196Z,44.00
2018-07-02T01:49:47.246Z,44.10
2018-07-02T01:52:15.302Z,44.40
2018-07-02T01:54:43.370Z,44.50
2018-07-02T01:57:11.433Z,44.50
2018-07-02T02:02:07.348Z,44.80
2018-07-02T02:04:35.920Z,44.80
2018-07-02T02:07:04.283Z,44.90
2018-07-02T02:09:32.338Z,45.10
2018-07-02T02:12:00.383Z,45.10
2018-07-02T02:14:28.444Z,45.40
2018-07-02T02:16:56.514Z,45.90
2018-07-02T02:19:24.567Z,45.50
2018-07-02T02:21:52.642Z,45.60
2018-07-02T02:24:20.719Z,45.80
2018-07-02T02:26:48.872Z,46.10
2018-07-02T02:29:16.906Z,46.30
2018-07-02T02:31:44.984Z,47.00
2018-07-02T02:34:13.150Z,47.00
2018-07-02T02:36:41.246Z,47.00
2018-07-02T02:39:09.958Z,47.00
2018-07-02T02:41:38.246Z,47.20
2018-07-02T02:44:06.715Z,47.20
2018-07-02T02:46:34.886Z,47.30
2018-07-02T02:49:02.946Z,47.50
2018-07-02T02:51:31.036Z,47.70
2018-07-02T02:53:59.106Z,48.70
2018-07-02T02:56:27.193Z,48.10
2018-07-02T02:58:55.484Z,48.20
2018-07-02T03:01:23.542Z,48.50
2018-07-02T03:03:51.623Z,48.70
2018-07-02T03:06:19.695Z,48.90
2018-07-02T03:08:47.780Z,49.10
2018-07-02T03:11:15.933Z,49.20
2018-07-02T03:13:44.247Z,49.70
2018-07-02T03:16:12.310Z,49.90
2018-07-02T03:18:40.351Z,50.50
2018-07-02T03:21:08.410Z,50.50
2018-07-02T03:23:36.475Z,50.50
2018-07-02T03:26:04.538Z,50.60
2018-07-02T03:28:32.591Z,50.80
2018-07-02T03:31:00.650Z,50.80
2018-07-02T03:33:28.712Z,51.00
2018-07-02T03:35:56.789Z,51.10
2018-07-02T03:38:24.837Z,51.30
2018-07-02T03:40:52.884Z,51.40
2018-07-02T03:43:20.981Z,51.50
2018-07-02T03:45:49.052Z,51.50
2018-07-02T03:48:17.204Z,51.60
2018-07-02T03:50:45.262Z,51.70
2018-07-02T03:53:13.333Z,51.90
2018-07-02T03:55:41.649Z,52.00
2018-07-02T03:58:09.718Z,52.40
2018-07-02T04:00:37.798Z,52.40
2018-07-02T04:03:05.903Z,53.10
2018-07-02T04:05:33.965Z,52.90
2018-07-02T04:08:02.084Z,52.90
2018-07-02T04:10:30.146Z,53.10
2018-07-02T04:12:58.227Z,53.20
2018-07-02T04:15:26.282Z,53.30
2018-07-02T04:17:54.343Z,53.50
2018-07-02T04:20:22.417Z,53.60
2018-07-02T04:22:51.260Z,53.70
2018-07-02T04:25:19.471Z,53.80
2018-07-02T04:27:47.530Z,53.90
2018-07-02T04:30:15.594Z,53.90
2018-07-02T04:32:43.682Z,54.00
2018-07-02T04:35:11.727Z,54.00
2018-07-02T04:37:39.799Z,54.10
2018-07-02T04:40:07.882Z,54.10
2018-07-02T04:42:35.950Z,54.30
2018-07-02T04:45:04.065Z,54.80
2018-07-02T04:47:32.122Z,54.70
2018-07-02T04:50:00.182Z,55.00
2018-07-02T04:52:28.238Z,55.40
2018-07-02T04:54:56.310Z,54.70
2018-07-02T04:57:24.367Z,54.60
2018-07-02T04:59:52.439Z,54.50
2018-07-02T05:02:21.080Z,54.40
2018-07-02T05:04:49.198Z,54.40
2018-07-02T05:07:17.261Z,54.30
2018-07-02T05:09:45.361Z,55.00
2018-07-02T05:12:13.434Z,54.30
2018-07-02T05:14:42.521Z,55.00
2018-07-02T05:17:10.571Z,54.40
2018-07-02T05:19:38.885Z,54.30
2018-07-02T05:22:07.154Z,54.30
2018-07-02T05:24:35.234Z,54.30
2018-07-02T05:27:03.337Z,54.40
2018-07-02T05:29:31.423Z,54.20
2018-07-02T05:31:59.478Z,54.40
2018-07-02T05:34:27.530Z,54.30
2018-07-02T05:36:55.594Z,54.30
2018-07-02T05:39:23.658Z,54.00
2018-07-02T05:41:52.073Z,54.00
2018-07-02T05:46:47.974Z,53.70
2018-07-02T05:49:16.062Z,53.50
2018-07-02T05:51:44.130Z,53.10
2018-07-02T05:54:12.758Z,52.90
2018-07-02T05:56:40.831Z,52.50
2018-07-02T05:59:08.934Z,52.20
2018-07-02T06:01:37.009Z,51.90
2018-07-02T06:04:05.071Z,51.60
2018-07-02T06:06:33.132Z,51.30
2018-07-02T06:09:01.287Z,51.20
2018-07-02T06:11:29.526Z,50.90
2018-07-02T06:13:57.602Z,50.80
2018-07-02T06:16:25.725Z,50.60
2018-07-02T06:18:53.739Z,50.50
2018-07-02T06:21:21.852Z,50.60
2018-07-02T06:23:49.895Z,50.40
2018-07-02T06:26:17.987Z,50.30
2018-07-02T06:28:46.075Z,50.20
2018-07-02T06:31:14.187Z,49.90
2018-07-02T06:33:42.254Z,49.50
2018-07-02T06:36:10.319Z,49.50
2018-07-02T06:38:38.402Z,49.40
2018-07-02T06:41:06.609Z,49.00
2018-07-02T06:43:34.694Z,48.50
2018-07-02T06:46:02.771Z,48.30
2018-07-02T06:48:30.880Z,48.00
2018-07-02T06:50:58.926Z,47.30
2018-07-02T06:53:27.020Z,46.90
2018-07-02T06:55:55.087Z,46.50
2018-07-02T06:58:23.166Z,46.00
2018-07-02T07:00:51.254Z,45.90
2018-07-02T07:03:19.326Z,45.70
2018-07-02T07:05:47.434Z,45.40
2018-07-02T07:08:15.505Z,45.50
2018-07-02T07:10:43.567Z,45.40
2018-07-02T07:13:11.638Z,45.40
2018-07-02T07:15:39.790Z,45.20
2018-07-02T07:18:07.838Z,44.70
2018-07-02T07:20:35.910Z,44.00
2018-07-02T07:23:04.219Z,43.30
2018-07-02T07:25:32.294Z,42.80
2018-07-02T07:28:04.955Z,42.90
2018-07-02T07:30:33.013Z,42.70
2018-07-02T07:33:01.086Z,42.70
2018-07-02T07:35:29.150Z,42.30
2018-07-02T07:37:57.250Z,42.10
2018-07-02T07:40:25.332Z,41.80
2018-07-02T07:42:53.395Z,41.50
2018-07-02T07:45:22.208Z,41.60
2018-07-02T07:47:50.301Z,41.70
2018-07-02T07:50:18.396Z,41.40
2018-07-02T07:55:14.334Z,40.20
2018-07-02T07:57:42.413Z,39.60
2018-07-02T08:00:10.499Z,39.10
2018-07-02T08:02:38.568Z,38.80
2018-07-02T08:05:06.743Z,38.40
2018-07-02T08:07:34.803Z,37.30
2018-07-02T08:12:30.775Z,38.30
2018-07-02T08:14:58.844Z,38.20
2018-07-02T08:17:26.923Z,37.70
2018-07-02T08:19:55.008Z,37.50
2018-07-02T08:22:23.091Z,37.10
2018-07-02T08:24:51.200Z,37.20
2018-07-02T08:27:19.292Z,37.10
2018-07-02T08:29:47.383Z,36.60
2018-07-02T08:32:15.432Z,36.20
2018-07-02T08:34:43.501Z,35.90
2018-07-02T08:37:11.597Z,35.60
2018-07-02T08:39:39.668Z,34.60
2018-07-02T08:42:07.810Z,34.10
2018-07-02T08:44:35.881Z,33.50
2018-07-02T08:47:03.956Z,33.40
2018-07-02T08:49:32.040Z,33.10
2018-07-02T08:52:00.131Z,32.80
2018-07-02T08:54:28.202Z,33.00
2018-07-02T08:56:57.760Z,33.30
2018-07-02T08:59:25.827Z,32.50
2018-07-02T09:01:53.898Z,32.10
2018-07-02T09:04:22.058Z,31.80
2018-07-02T09:06:50.192Z,31.80
2018-07-02T09:09:18.223Z,31.80
2018-07-02T09:11:46.373Z,31.20
2018-07-02T09:14:14.470Z,31.00
2018-07-02T09:16:42.537Z,31.20
2018-07-02T09:19:10.667Z,31.50
2018-07-02T09:21:38.867Z,31.60
2018-07-02T09:24:06.797Z,31.10
2018-07-02T09:26:34.885Z,31.10
2018-07-02T09:29:02.959Z,30.90
2018-07-02T09:31:31.068Z,31.00
2018-07-02T09:33:59.158Z,31.10
2018-07-02T09:36:27.221Z,30.90
2018-07-02T09:38:55.336Z,30.60
2018-07-02T09:41:24.663Z,30.30
2018-07-02T09:43:52.914Z,29.90
2018-07-02T09:46:20.986Z,29.80
2018-07-02T09:48:49.109Z,30.00
2018-07-02T09:51:17.283Z,29.80
2018-07-02T09:53:45.386Z,29.70
2018-07-02T09:56:13.478Z,29.30
2018-07-02T09:58:41.629Z,29.70
2018-07-02T10:01:09.876Z,29.80
2018-07-02T10:03:37.987Z,29.50
2018-07-02T10:06:07.570Z,29.40
2018-07-02T10:11:03.546Z,28.90
2018-07-02T10:13:31.634Z,28.50
2018-07-02T10:18:27.584Z,28.90
2018-07-02T10:20:59.426Z,28.90
2018-07-02T10:23:27.691Z,28.80
2018-07-02T10:25:55.785Z,28.60
2018-07-02T10:28:24.504Z,28.30
2018-07-02T10:30:52.725Z,28.40
2018-07-02T10:33:20.740Z,28.50
2018-07-02T10:35:48.944Z,28.50
2018-07-02T10:38:28.418Z,28.80
2018-07-02T10:40:57.048Z,28.70
2018-07-02T10:43:26.505Z,28.20
2018-07-02T10:45:54.668Z,27.90
2018-07-02T10:48:22.719Z,27.90
2018-07-02T10:50:50.807Z,27.90
2018-07-02T10:53:18.954Z,27.90
2018-07-02T10:55:47.080Z,27.50
2018-07-02T10:58:15.181Z,27.20
2018-07-02T11:00:43.292Z,27.00
2018-07-02T11:03:11.420Z,27.40
2018-07-02T11:05:39.510Z,27.40
2018-07-02T11:08:07.638Z,27.00
2018-07-02T11:10:36.532Z,26.80
2018-07-02T11:13:11.411Z,26.40
2018-07-02T11:15:40.669Z,26.60
2018-07-02T11:18:10.263Z,26.60
2018-07-02T11:20:39.391Z,26.50
2018-07-02T11:23:07.523Z,26.70
2018-07-02T11:25:36.290Z,26.70
2018-07-02T11:28:04.709Z,26.70
2018-07-02T11:30:32.896Z,26.80
2018-07-02T11:33:01.280Z,26.60
2018-07-02T11:35:29.390Z,26.50
2018-07-02T11:37:57.506Z,26.50
2018-07-02T11:40:25.648Z,26.30
2018-07-02T11:45:21.593Z,26.20
2018-07-02T11:47:49.724Z,26.70
2018-07-02T11:50:17.786Z,26.60
2018-07-02T11:52:45.867Z,26.50
2018-07-02T11:55:13.948Z,26.60
2018-07-02T11:57:42.011Z,26.40
2018-07-02T12:00:10.307Z,26.30
2018-07-02T12:02:38.879Z,26.20
2018-07-02T12:05:07.051Z,26.60
2018-07-02T12:07:35.144Z,26.20
2018-07-02T12:10:04.408Z,26.50
2018-07-02T12:12:33.023Z,26.60
2018-07-02T12:15:01.123Z,26.60
2018-07-02T12:17:29.427Z,26.60
2018-07-02T12:19:57.556Z,26.70
2018-07-02T12:22:25.643Z,26.30
2018-07-02T12:24:53.719Z,26.40
2018-07-02T12:27:21.790Z,26.60
2018-07-02T12:29:49.875Z,26.60
2018-07-02T12:32:18.034Z,26.50
2018-07-02T12:34:46.113Z,26.70
2018-07-02T12:37:14.180Z,27.10
2018-07-02T12:39:42.243Z,26.50
2018-07-02T12:42:10.371Z,26.10
2018-07-02T12:44:38.439Z,26.20
2018-07-02T12:47:06.507Z,26.50
2018-07-02T12:49:34.589Z,25.90
2018-07-02T12:52:02.656Z,25.70
2018-07-02T12:54:30.762Z,25.70
2018-07-02T12:56:58.846Z,25.70
2018-07-02T12:59:26.920Z,26.00
2018-07-02T13:01:55.004Z,26.10
2018-07-02T13:04:23.083Z,26.10
2018-07-02T13:06:51.148Z,26.20
2018-07-02T13:09:19.226Z,26.00
2018-07-02T13:11:47.451Z,25.70
2018-07-02T13:14:15.547Z,25.90
2018-07-02T13:16:43.616Z,25.90
2018-07-02T13:19:11.707Z,25.80
2018-07-02T13:21:39.798Z,25.70
2018-07-02T13:24:07.886Z,25.90
2018-07-02T13:26:35.987Z,25.90
2018-07-02T13:29:04.172Z,25.90
2018-07-02T13:34:00.248Z,25.90
2018-07-02T13:36:28.350Z,26.00
2018-07-02T13:38:56.515Z,25.80
2018-07-02T13:41:24.678Z,25.30
2018-07-02T13:43:52.829Z,24.60
2018-07-02T13:46:20.951Z,24.80
2018-07-02T13:48:49.091Z,24.80
2018-07-02T13:51:17.239Z,25.00
2018-07-02T13:53:46.745Z,24.90
2018-07-02T13:56:14.796Z,24.70
2018-07-02T13:58:42.886Z,24.80
2018-07-02T14:03:38.835Z,24.90
2018-07-02T14:06:07.010Z,24.80
2018-07-02T14:08:35.153Z,24.90
2018-07-02T14:11:03.295Z,24.80
2018-07-02T14:13:31.570Z,24.50
2018-07-02T14:15:59.639Z,24.10
2018-07-02T14:18:27.789Z,24.10
2018-07-02T14:20:56.392Z,24.30
2018-07-02T14:23:24.663Z,24.30
2018-07-02T14:25:52.727Z,24.00
2018-07-02T14:28:21.094Z,24.20
2018-07-02T14:30:49.180Z,24.30
2018-07-02T14:33:17.270Z,23.90
2018-07-02T14:35:45.342Z,23.80
2018-07-02T14:38:13.434Z,23.60
2018-07-02T14:40:41.718Z,23.50
2018-07-02T14:43:09.844Z,23.50
2018-07-02T14:45:38.039Z,23.90
2018-07-02T14:48:05.981Z,23.80
2018-07-02T14:50:34.067Z,23.40
2018-07-02T14:53:02.139Z,23.30
2018-07-02T14:55:30.307Z,23.00
2018-07-02T14:57:58.371Z,23.30
2018-07-02T15:00:26.450Z,23.30
2018-07-02T15:02:54.541Z,23.40
2018-07-02T15:05:22.655Z,23.60
2018-07-02T15:07:51.051Z,23.80
2018-07-02T15:10:19.139Z,23.50
2018-07-02T15:12:47.215Z,23.50
2018-07-02T15:15:15.345Z,23.30
2018-07-02T15:17:43.414Z,23.20
2018-07-02T15:20:12.539Z,23.00
2018-07-02T15:22:40.822Z,23.30
2018-07-02T15:25:08.944Z,23.10
2018-07-02T15:27:37.043Z,23.00
2018-07-02T15:30:05.461Z,22.80
2018-07-02T15:32:33.529Z,22.60
2018-07-02T15:35:01.591Z,22.60
2018-07-02T15:37:29.882Z,22.70
2018-07-02T15:39:58.344Z,22.60
2018-07-02T15:42:26.535Z,22.50
2018-07-02T15:44:56.822Z,22.50
2018-07-02T15:47:25.085Z,22.20
2018-07-02T15:49:53.186Z,22.10
2018-07-02T15:52:21.698Z,22.20
2018-07-02T15:54:51.963Z,21.60
2018-07-02T15:57:20.028Z,21.40
2018-07-02T15:59:48.280Z,21.30
2018-07-02T16:02:16.585Z,21.40
2018-07-02T16:04:44.750Z,21.30
2018-07-02T16:07:12.822Z,21.30
2018-07-02T16:09:41.714Z,20.90
2018-07-02T16:12:09.819Z,20.60
2018-07-02T16:14:39.122Z,20.60
2018-07-02T16:17:07.205Z,20.40
2018-07-02T16:19:35.266Z,20.30
2018-07-02T16:22:03.330Z,19.90
2018-07-02T16:24:31.406Z,19.30
2018-07-02T16:26:59.475Z,19.50
2018-07-02T16:29:27.573Z,19.60
2018-07-02T16:31:55.700Z,19.60
2018-07-02T16:34:24.080Z,19.60
2018-07-02T16:36:53.058Z,19.40
2018-07-02T16:39:21.122Z,19.30
2018-07-02T16:41:49.376Z,19.20
2018-07-02T16:44:17.453Z,19.00
2018-07-02T16:46:45.601Z,18.70
2018-07-02T16:49:13.682Z,18.50
2018-07-02T16:51:41.774Z,18.00
2018-07-02T16:54:09.870Z,18.30
2018-07-02T16:56:39.340Z,18.10
2018-07-02T16:59:07.550Z,18.30
2018-07-02T17:01:36.739Z,18.30
2018-07-02T17:04:11.605Z,18.50
2018-07-02T17:06:39.761Z,18.60
2018-07-02T17:09:09.797Z,18.30
2018-07-02T17:11:38.450Z,19.30
2018-07-02T17:14:06.803Z,20.50
2018-07-02T17:16:34.894Z,21.30
2018-07-02T17:19:03.011Z,22.10
2018-07-02T17:21:31.568Z,22.60
2018-07-02T17:23:59.643Z,23.20
2018-07-02T17:26:27.794Z,23.60
2018-07-02T17:28:55.901Z,24.40
2018-07-02T17:31:24.603Z,24.40
2018-07-02T17:33:52.666Z,24.50
2018-07-02T17:36:20.758Z,24.80
2018-07-02T17:38:48.879Z,25.00
2018-07-02T17:41:17.072Z,25.10
2018-07-02T17:43:45.135Z,25.50
2018-07-02T17:46:13.290Z,25.60
2018-07-02T17:48:41.398Z,25.70
2018-07-02T17:51:09.958Z,25.80
2018-07-02T17:53:39.090Z,25.70
2018-07-02T17:56:07.175Z,25.60
2018-07-02T17:58:35.263Z,25.90
2018-07-02T18:01:04.365Z,26.30
2018-07-02T18:03:32.394Z,26.40
2018-07-02T18:06:00.515Z,26.60
2018-07-02T18:08:28.613Z,26.60
2018-07-02T18:10:56.723Z,26.70
2018-07-02T18:13:24.819Z,26.80
2018-07-02T18:15:52.925Z,26.70
2018-07-02T18:18:21.011Z,26.70
2018-07-02T18:20:49.106Z,26.60
2018-07-02T18:23:17.188Z,26.70
2018-07-02T18:25:45.256Z,26.60
2018-07-02T18:28:13.322Z,27.00
2018-07-02T18:30:41.424Z,27.10
2018-07-02T18:33:09.532Z,27.40
2018-07-02T18:35:37.607Z,27.40
2018-07-02T18:38:05.794Z,27.20
2018-07-02T18:40:33.831Z,27.20
2018-07-02T18:43:01.972Z,27.40
2018-07-02T18:45:30.063Z,27.40
2018-07-02T18:47:58.270Z,27.40
2018-07-02T18:50:26.350Z,27.50
2018-07-02T18:52:54.426Z,27.50
2018-07-02T18:55:22.566Z,27.60
2018-07-02T18:57:50.598Z,27.60
2018-07-02T19:00:18.707Z,27.80
2018-07-02T19:02:46.800Z,27.70
2018-07-02T19:05:14.874Z,27.90
2018-07-02T19:07:42.986Z,28.10
2018-07-02T19:10:11.394Z,28.10
2018-07-02T19:12:39.750Z,28.10
2018-07-02T19:15:08.049Z,28.10
2018-07-02T19:17:36.279Z,28.60
2018-07-02T19:20:04.382Z,28.30
2018-07-02T19:22:32.483Z,28.30
2018-07-02T19:25:00.731Z,28.30
2018-07-02T19:27:28.795Z,28.20
2018-07-02T19:29:56.901Z,28.40
2018-07-02T19:32:25.022Z,28.40
2018-07-02T19:34:53.110Z,28.70
2018-07-02T19:37:21.187Z,28.80
2018-07-02T19:39:49.267Z,29.10
2018-07-02T19:44:45.171Z,29.30
2018-07-02T19:47:13.284Z,29.50
2018-07-02T19:49:41.353Z,29.60
2018-07-02T19:52:09.458Z,29.80
2018-07-02T19:54:40.863Z,29.80
2018-07-02T19:57:08.937Z,29.80
2018-07-02T19:59:36.983Z,29.80
2018-07-02T20:02:05.168Z,29.80
2018-07-02T20:04:36.869Z,29.90
2018-07-02T20:07:05.067Z,29.90
2018-07-02T20:09:33.025Z,30.00
2018-07-02T20:12:01.099Z,30.00
2018-07-02T20:14:29.154Z,30.20
2018-07-02T20:16:57.242Z,30.20
2018-07-02T20:19:25.343Z,30.30
2018-07-02T20:21:53.490Z,30.40
2018-07-02T20:24:21.554Z,30.50
2018-07-02T20:26:49.628Z,30.60
2018-07-02T20:29:17.711Z,31.40
2018-07-02T20:31:46.044Z,33.40
2018-07-02T20:34:14.382Z,34.90
2018-07-02T20:36:42.472Z,36.10
2018-07-02T20:39:11.338Z,37.20
2018-07-02T20:41:39.442Z,38.30
2018-07-02T20:44:07.686Z,39.40
2018-07-02T20:46:35.853Z,41.00
2018-07-02T20:49:04.674Z,41.30
2018-07-02T20:51:33.047Z,43.70
2018-07-02T20:54:01.315Z,43.80
2018-07-02T20:56:29.384Z,45.10
2018-07-02T20:58:57.482Z,44.70
2018-07-02T21:01:25.567Z,45.00
2018-07-02T21:03:53.803Z,46.10
2018-07-02T21:06:22.115Z,46.00
2018-07-02T21:08:50.198Z,46.30
2018-07-02T21:11:18.627Z,46.50
2018-07-02T21:13:47.033Z,46.60
2018-07-02T21:16:15.194Z,46.90
2018-07-02T21:18:43.788Z,47.80
2018-07-02T21:21:11.861Z,47.40
2018-07-02T21:23:39.992Z,48.40
2018-07-02T21:26:08.140Z,48.20
2018-07-02T21:28:36.221Z,48.60
2018-07-02T21:31:04.311Z,49.00
2018-07-02T21:33:32.694Z,48.30
2018-07-02T21:36:00.732Z,48.30
2018-07-02T21:38:28.818Z,48.50
2018-07-02T21:40:56.895Z,48.50
2018-07-02T21:43:24.981Z,48.50
2018-07-02T21:45:53.115Z,48.60
2018-07-02T21:48:21.775Z,48.90
2018-07-02T21:50:49.916Z,48.90
2018-07-02T21:53:18.111Z,49.00
2018-07-02T21:55:46.190Z,49.20
2018-07-02T21:58:14.251Z,49.10
2018-07-02T22:00:45.045Z,49.50
2018-07-02T22:03:13.137Z,49.30
2018-07-02T22:05:41.255Z,49.70
2018-07-02T22:08:10.118Z,49.50
2018-07-02T22:10:38.179Z,49.40
2018-07-02T22:13:06.359Z,49.50
2018-07-02T22:15:34.754Z,49.50
2018-07-02T22:18:03.023Z,49.50
2018-07-02T22:20:31.103Z,49.50
2018-07-02T22:22:59.197Z,49.50
2018-07-02T22:25:27.292Z,49.50
2018-07-02T22:27:55.496Z,49.50
2018-07-02T22:30:23.632Z,49.50
2018-07-02T22:32:51.739Z,49.50
2018-07-02T22:35:19.790Z,49.60
2018-07-02T22:37:47.862Z,50.10
2018-07-02T22:40:15.923Z,50.10
2018-07-02T22:42:43.983Z,50.40
2018-07-02T22:45:12.054Z,50.40
2018-07-02T22:47:40.117Z,50.40
2018-07-02T22:50:08.166Z,50.50
2018-07-02T22:52:36.278Z,50.50
2018-07-02T22:55:04.370Z,50.50
2018-07-02T22:57:32.438Z,50.70
2018-07-02T23:00:00.507Z,50.80
2018-07-02T23:02:28.580Z,51.00
2018-07-02T23:04:56.671Z,51.10
2018-07-02T23:07:24.759Z,51.30
2018-07-02T23:09:52.818Z,51.40
2018-07-02T23:12:20.894Z,51.60
2018-07-02T23:14:48.964Z,52.30
2018-07-02T23:17:17.016Z,52.30
2018-07-02T23:19:45.087Z,52.80
2018-07-02T23:22:13.295Z,52.80
2018-07-02T23:24:41.369Z,52.90
2018-07-02T23:27:09.426Z,52.90
2018-07-02T23:29:37.530Z,52.90
2018-07-02T23:32:05.649Z,52.90
2018-07-02T23:34:33.746Z,53.10
2018-07-02T23:37:01.846Z,53.30
2018-07-02T23:39:29.916Z,53.40
2018-07-02T23:41:57.988Z,53.60
2018-07-02T23:44:26.061Z,53.70
2018-07-02T23:46:54.158Z,53.80
2018-07-02T23:49:22.229Z,53.90
2018-07-02T23:51:50.302Z,54.20
2018-07-02T23:54:18.430Z,55.10
2018-07-02T23:56:46.534Z,55.00
2018-07-02T23:59:14.590Z,54.80
